sensor_id;sensor_type;location;lat;lon;timestamp;P1;durP1;ratioP1;P2;durP2;ratioP2
17380;SDS011;8808;52.478;13.378;2023-06-24T00:01:42;1347.17;;;669.93;;
17380;SDS011;8808;52.478;13.378;2023-06-24T00:04:11;1999.90;;;999.90;;
17380;SDS011;8808;52.478;13.378;2023-06-24T00:06:40;22.73;;;11.13;;
17380;SDS011;8808;52.478;13.378;2023-06-24T00:09:07;94.13;;;14.13;;
17380;SDS011;8808;52.478;13.378;2023-06-24T00:11:34;23.03;;;12.23;;
17380;SDS011;8808;52.478;13.378;2023-06-24T00:14:01;18.80;;;11.17;;
17380;SDS011;8808;52.478;13.378;2023-06-24T00:16:28;30.13;;;14.93;;
17380;SDS011;8808;52.478;13.378;2023-06-24T00:18:55;58.83;;;16.60;;
17380;SDS011;8808;52.478;13.378;2023-06-24T00:21:27;80.07;;;16.60;;
17380;SDS011;8808;52.478;13.378;2023-06-24T00:23:55;133.70;;;43.03;;
17380;SDS011;8808;52.478;13.378;2023-06-24T00:26:22;78.80;;;23.17;;
17380;SDS011;8808;52.478;13.378;2023-06-24T00:28:50;56.03;;;22.60;;
17380;SDS011;8808;52.478;13.378;2023-06-24T00:31:17;347.43;;;47.67;;
17380;SDS011;8808;52.478;13.378;2023-06-24T00:33:44;36.03;;;18.63;;
17380;SDS011;8808;52.478;13.378;2023-06-24T00:36:11;55.93;;;50.13;;
17380;SDS011;8808;52.478;13.378;2023-06-24T00:38:39;76.40;;;25.07;;
17380;SDS011;8808;52.478;13.378;2023-06-24T00:41:07;30.80;;;16.50;;
17380;SDS011;8808;52.478;13.378;2023-06-24T00:43:34;38.83;;;22.43;;
17380;SDS011;8808;52.478;13.378;2023-06-24T00:46:01;36.77;;;20.97;;
17380;SDS011;8808;52.478;13.378;2023-06-24T00:48:28;41.73;;;22.30;;
17380;SDS011;8808;52.478;13.378;2023-06-24T00:50:56;33.63;;;17.67;;
17380;SDS011;8808;52.478;13.378;2023-06-24T00:53:23;34.33;;;17.63;;
17380;SDS011;8808;52.478;13.378;2023-06-24T00:55:52;37.20;;;19.73;;
17380;SDS011;8808;52.478;13.378;2023-06-24T00:58:21;65.20;;;41.03;;
17380;SDS011;8808;52.478;13.378;2023-06-24T01:03:25;1999.90;;;999.90;;
17380;SDS011;8808;52.478;13.378;2023-06-24T01:05:52;1999.90;;;999.90;;
17380;SDS011;8808;52.478;13.378;2023-06-24T01:08:20;1999.90;;;999.90;;
17380;SDS011;8808;52.478;13.378;2023-06-24T01:10:48;1999.90;;;999.90;;
17380;SDS011;8808;52.478;13.378;2023-06-24T01:13:17;1999.90;;;999.90;;
17380;SDS011;8808;52.478;13.378;2023-06-24T01:15:44;1999.90;;;999.90;;
17380;SDS011;8808;52.478;13.378;2023-06-24T01:18:13;231.40;;;108.73;;
17380;SDS011;8808;52.478;13.378;2023-06-24T01:20:52;29.83;;;14.73;;
17380;SDS011;8808;52.478;13.378;2023-06-24T01:26:29;823.33;;;409.17;;
17380;SDS011;8808;52.478;13.378;2023-06-24T01:32:03;1999.90;;;999.90;;
17380;SDS011;8808;52.478;13.378;2023-06-24T01:34:40;1999.90;;;999.90;;
17380;SDS011;8808;52.478;13.378;2023-06-24T01:37:19;1999.90;;;999.90;;
17380;SDS011;8808;52.478;13.378;2023-06-24T01:39:57;1999.90;;;999.90;;
17380;SDS011;8808;52.478;13.378;2023-06-24T01:42:34;1999.90;;;999.90;;
17380;SDS011;8808;52.478;13.378;2023-06-24T01:45:05;1999.90;;;999.90;;
17380;SDS011;8808;52.478;13.378;2023-06-24T01:47:36;1999.90;;;999.90;;
17380;SDS011;8808;52.478;13.378;2023-06-24T01:50:06;137.07;;;61.30;;
17380;SDS011;8808;52.478;13.378;2023-06-24T01:52:37;47.13;;;36.57;;
17380;SDS011;8808;52.478;13.378;2023-06-24T01:55:07;1999.90;;;999.90;;
17380;SDS011;8808;52.478;13.378;2023-06-24T01:57:36;1999.90;;;999.90;;
17380;SDS011;8808;52.478;13.378;2023-06-24T02:00:07;29.80;;;14.93;;
17380;SDS011;8808;52.478;13.378;2023-06-24T02:02:37;27.00;;;14.67;;
17380;SDS011;8808;52.478;13.378;2023-06-24T02:05:06;29.37;;;14.40;;
17380;SDS011;8808;52.478;13.378;2023-06-24T02:07:35;30.80;;;14.03;;
17380;SDS011;8808;52.478;13.378;2023-06-24T02:10:04;29.50;;;14.77;;
17380;SDS011;8808;52.478;13.378;2023-06-24T02:12:33;28.43;;;14.93;;
17380;SDS011;8808;52.478;13.378;2023-06-24T02:15:01;30.17;;;15.43;;
17380;SDS011;8808;52.478;13.378;2023-06-24T02:17:30;27.90;;;14.33;;
17380;SDS011;8808;52.478;13.378;2023-06-24T02:19:58;26.97;;;14.70;;
17380;SDS011;8808;52.478;13.378;2023-06-24T02:22:26;29.50;;;15.13;;
17380;SDS011;8808;52.478;13.378;2023-06-24T02:24:54;25.47;;;13.43;;
17380;SDS011;8808;52.478;13.378;2023-06-24T02:27:22;25.97;;;13.40;;
17380;SDS011;8808;52.478;13.378;2023-06-24T02:29:50;69.80;;;14.67;;
17380;SDS011;8808;52.478;13.378;2023-06-24T02:32:18;29.00;;;13.17;;
17380;SDS011;8808;52.478;13.378;2023-06-24T02:34:45;23.70;;;12.80;;
17380;SDS011;8808;52.478;13.378;2023-06-24T02:37:14;23.77;;;12.83;;
17380;SDS011;8808;52.478;13.378;2023-06-24T02:39:41;27.20;;;13.57;;
17380;SDS011;8808;52.478;13.378;2023-06-24T02:42:09;27.57;;;11.97;;
17380;SDS011;8808;52.478;13.378;2023-06-24T02:44:36;25.37;;;11.90;;
17380;SDS011;8808;52.478;13.378;2023-06-24T02:47:05;20.40;;;11.50;;
17380;SDS011;8808;52.478;13.378;2023-06-24T02:49:36;876.60;;;396.20;;
17380;SDS011;8808;52.478;13.378;2023-06-24T02:52:04;24.23;;;12.10;;
17380;SDS011;8808;52.478;13.378;2023-06-24T02:54:33;30.43;;;12.43;;
17380;SDS011;8808;52.478;13.378;2023-06-24T02:57:04;22.13;;;11.60;;
17380;SDS011;8808;52.478;13.378;2023-06-24T02:59:31;23.40;;;12.27;;
17380;SDS011;8808;52.478;13.378;2023-06-24T03:01:58;21.77;;;11.23;;
17380;SDS011;8808;52.478;13.378;2023-06-24T03:04:26;24.00;;;12.10;;
17380;SDS011;8808;52.478;13.378;2023-06-24T03:06:54;22.07;;;11.30;;
17380;SDS011;8808;52.478;13.378;2023-06-24T03:09:21;26.77;;;11.50;;
17380;SDS011;8808;52.478;13.378;2023-06-24T03:11:50;25.00;;;12.00;;
17380;SDS011;8808;52.478;13.378;2023-06-24T03:14:17;25.43;;;11.83;;
17380;SDS011;8808;52.478;13.378;2023-06-24T03:16:44;25.93;;;12.27;;
17380;SDS011;8808;52.478;13.378;2023-06-24T03:19:11;27.07;;;11.77;;
17380;SDS011;8808;52.478;13.378;2023-06-24T03:21:38;21.87;;;10.90;;
17380;SDS011;8808;52.478;13.378;2023-06-24T03:24:05;25.63;;;12.13;;
17380;SDS011;8808;52.478;13.378;2023-06-24T03:26:32;24.90;;;11.10;;
17380;SDS011;8808;52.478;13.378;2023-06-24T03:29:01;25.77;;;12.03;;
17380;SDS011;8808;52.478;13.378;2023-06-24T03:31:29;23.57;;;11.10;;
17380;SDS011;8808;52.478;13.378;2023-06-24T03:33:56;22.60;;;10.47;;
17380;SDS011;8808;52.478;13.378;2023-06-24T03:36:23;23.87;;;11.93;;
17380;SDS011;8808;52.478;13.378;2023-06-24T03:38:50;26.10;;;11.17;;
17380;SDS011;8808;52.478;13.378;2023-06-24T03:41:17;24.33;;;11.60;;
17380;SDS011;8808;52.478;13.378;2023-06-24T03:43:44;23.33;;;10.47;;
17380;SDS011;8808;52.478;13.378;2023-06-24T03:46:12;22.50;;;10.20;;
17380;SDS011;8808;52.478;13.378;2023-06-24T03:48:39;20.47;;;11.27;;
17380;SDS011;8808;52.478;13.378;2023-06-24T03:51:06;23.93;;;11.50;;
17380;SDS011;8808;52.478;13.378;2023-06-24T03:53:33;19.10;;;10.90;;
17380;SDS011;8808;52.478;13.378;2023-06-24T03:56:00;22.50;;;12.07;;
17380;SDS011;8808;52.478;13.378;2023-06-24T03:58:27;20.13;;;10.97;;
17380;SDS011;8808;52.478;13.378;2023-06-24T04:00:54;23.20;;;11.27;;
17380;SDS011;8808;52.478;13.378;2023-06-24T04:03:24;21.67;;;11.43;;
17380;SDS011;8808;52.478;13.378;2023-06-24T04:05:52;24.97;;;11.53;;
17380;SDS011;8808;52.478;13.378;2023-06-24T04:08:19;19.53;;;11.33;;
17380;SDS011;8808;52.478;13.378;2023-06-24T04:10:47;292.10;;;52.47;;
17380;SDS011;8808;52.478;13.378;2023-06-24T04:13:14;21.80;;;11.30;;
17380;SDS011;8808;52.478;13.378;2023-06-24T04:15:41;22.27;;;10.57;;
17380;SDS011;8808;52.478;13.378;2023-06-24T04:18:08;23.40;;;11.27;;
17380;SDS011;8808;52.478;13.378;2023-06-24T04:20:36;27.60;;;11.27;;
17380;SDS011;8808;52.478;13.378;2023-06-24T04:23:03;22.57;;;11.13;;
17380;SDS011;8808;52.478;13.378;2023-06-24T04:25:32;27.30;;;12.40;;
17380;SDS011;8808;52.478;13.378;2023-06-24T04:27:59;20.53;;;11.70;;
17380;SDS011;8808;52.478;13.378;2023-06-24T04:30:26;21.20;;;11.03;;
17380;SDS011;8808;52.478;13.378;2023-06-24T04:32:53;22.97;;;11.97;;
17380;SDS011;8808;52.478;13.378;2023-06-24T04:35:20;22.67;;;10.83;;
17380;SDS011;8808;52.478;13.378;2023-06-24T04:37:48;22.30;;;11.10;;
17380;SDS011;8808;52.478;13.378;2023-06-24T04:40:16;22.53;;;11.47;;
17380;SDS011;8808;52.478;13.378;2023-06-24T04:42:44;24.87;;;11.33;;
17380;SDS011;8808;52.478;13.378;2023-06-24T04:45:11;20.53;;;11.57;;
17380;SDS011;8808;52.478;13.378;2023-06-24T04:47:38;23.10;;;11.67;;
17380;SDS011;8808;52.478;13.378;2023-06-24T04:50:05;24.43;;;9.10;;
17380;SDS011;8808;52.478;13.378;2023-06-24T04:52:35;21.00;;;10.37;;
17380;SDS011;8808;52.478;13.378;2023-06-24T04:55:04;128.43;;;114.53;;
17380;SDS011;8808;52.478;13.378;2023-06-24T04:57:31;20.60;;;11.00;;
17380;SDS011;8808;52.478;13.378;2023-06-24T04:59:59;43.37;;;28.93;;
17380;SDS011;8808;52.478;13.378;2023-06-24T05:02:26;24.20;;;10.73;;
17380;SDS011;8808;52.478;13.378;2023-06-24T05:04:53;62.57;;;17.20;;
17380;SDS011;8808;52.478;13.378;2023-06-24T05:07:20;19.80;;;10.03;;
17380;SDS011;8808;52.478;13.378;2023-06-24T05:09:47;20.97;;;9.80;;
17380;SDS011;8808;52.478;13.378;2023-06-24T05:12:17;19.53;;;10.37;;
17380;SDS011;8808;52.478;13.378;2023-06-24T05:14:48;21.57;;;10.87;;
17380;SDS011;8808;52.478;13.378;2023-06-24T05:17:16;21.30;;;9.57;;
17380;SDS011;8808;52.478;13.378;2023-06-24T05:19:43;21.27;;;10.30;;
17380;SDS011;8808;52.478;13.378;2023-06-24T05:22:11;20.80;;;9.77;;
17380;SDS011;8808;52.478;13.378;2023-06-24T05:24:37;19.70;;;10.27;;
17380;SDS011;8808;52.478;13.378;2023-06-24T05:27:06;1999.90;;;999.90;;
17380;SDS011;8808;52.478;13.378;2023-06-24T05:29:35;18.73;;;10.07;;
17380;SDS011;8808;52.478;13.378;2023-06-24T05:32:02;19.33;;;9.83;;
17380;SDS011;8808;52.478;13.378;2023-06-24T05:34:29;18.43;;;9.03;;
17380;SDS011;8808;52.478;13.378;2023-06-24T05:36:56;18.50;;;9.57;;
17380;SDS011;8808;52.478;13.378;2023-06-24T05:39:23;17.97;;;9.20;;
17380;SDS011;8808;52.478;13.378;2023-06-24T05:41:51;16.07;;;9.07;;
17380;SDS011;8808;52.478;13.378;2023-06-24T05:44:18;17.27;;;8.37;;
17380;SDS011;8808;52.478;13.378;2023-06-24T05:46:46;17.27;;;8.30;;
17380;SDS011;8808;52.478;13.378;2023-06-24T05:49:13;17.40;;;7.97;;
17380;SDS011;8808;52.478;13.378;2023-06-24T05:51:40;13.67;;;7.60;;
17380;SDS011;8808;52.478;13.378;2023-06-24T05:54:07;12.43;;;7.40;;
17380;SDS011;8808;52.478;13.378;2023-06-24T05:56:34;12.43;;;7.50;;
17380;SDS011;8808;52.478;13.378;2023-06-24T05:59:02;15.00;;;7.60;;
17380;SDS011;8808;52.478;13.378;2023-06-24T06:01:29;13.97;;;8.00;;
17380;SDS011;8808;52.478;13.378;2023-06-24T06:03:57;15.63;;;8.00;;
17380;SDS011;8808;52.478;13.378;2023-06-24T06:06:24;12.13;;;7.17;;
17380;SDS011;8808;52.478;13.378;2023-06-24T06:08:51;15.30;;;7.10;;
17380;SDS011;8808;52.478;13.378;2023-06-24T06:11:17;14.80;;;8.10;;
17380;SDS011;8808;52.478;13.378;2023-06-24T06:13:44;15.77;;;7.77;;
17380;SDS011;8808;52.478;13.378;2023-06-24T06:16:12;13.73;;;7.07;;
17380;SDS011;8808;52.478;13.378;2023-06-24T06:18:38;20.20;;;8.33;;
17380;SDS011;8808;52.478;13.378;2023-06-24T06:21:07;15.93;;;8.43;;
17380;SDS011;8808;52.478;13.378;2023-06-24T06:23:34;66.70;;;39.33;;
17380;SDS011;8808;52.478;13.378;2023-06-24T06:26:01;96.40;;;90.30;;
17380;SDS011;8808;52.478;13.378;2023-06-24T06:28:27;890.87;;;418.73;;
17380;SDS011;8808;52.478;13.378;2023-06-24T06:30:54;1398.33;;;715.23;;
17380;SDS011;8808;52.478;13.378;2023-06-24T06:33:22;336.13;;;171.97;;
17380;SDS011;8808;52.478;13.378;2023-06-24T06:35:49;843.30;;;495.50;;
17380;SDS011;8808;52.478;13.378;2023-06-24T06:38:18;1211.00;;;121.23;;
17380;SDS011;8808;52.478;13.378;2023-06-24T06:40:44;195.07;;;21.13;;
17380;SDS011;8808;52.478;13.378;2023-06-24T06:43:11;702.47;;;126.83;;
17380;SDS011;8808;52.478;13.378;2023-06-24T06:45:38;14.47;;;8.00;;
17380;SDS011;8808;52.478;13.378;2023-06-24T06:48:06;12.37;;;6.93;;
17380;SDS011;8808;52.478;13.378;2023-06-24T06:50:33;16.80;;;7.60;;
17380;SDS011;8808;52.478;13.378;2023-06-24T06:53:00;16.23;;;7.87;;
17380;SDS011;8808;52.478;13.378;2023-06-24T06:55:29;14.10;;;6.87;;
17380;SDS011;8808;52.478;13.378;2023-06-24T06:57:56;10.88;;;6.93;;
17380;SDS011;8808;52.478;13.378;2023-06-24T07:00:23;8.87;;;6.00;;
17380;SDS011;8808;52.478;13.378;2023-06-24T07:02:49;10.75;;;6.47;;
17380;SDS011;8808;52.478;13.378;2023-06-24T07:05:16;1999.90;;;999.90;;
17380;SDS011;8808;52.478;13.378;2023-06-24T07:07:43;1999.90;;;999.90;;
17380;SDS011;8808;52.478;13.378;2023-06-24T07:10:10;699.03;;;348.07;;
17380;SDS011;8808;52.478;13.378;2023-06-24T07:12:39;4.00;;;2.90;;
17380;SDS011;8808;52.478;13.378;2023-06-24T07:15:06;8.43;;;5.30;;
17380;SDS011;8808;52.478;13.378;2023-06-24T07:17:34;9.40;;;4.77;;
17380;SDS011;8808;52.478;13.378;2023-06-24T07:20:01;13.10;;;6.70;;
17380;SDS011;8808;52.478;13.378;2023-06-24T07:22:28;6.37;;;4.37;;
17380;SDS011;8808;52.478;13.378;2023-06-24T07:24:55;8.53;;;5.60;;
17380;SDS011;8808;52.478;13.378;2023-06-24T07:27:22;8.77;;;5.47;;
17380;SDS011;8808;52.478;13.378;2023-06-24T07:29:51;12.80;;;5.77;;
17380;SDS011;8808;52.478;13.378;2023-06-24T07:32:18;12.73;;;8.67;;
17380;SDS011;8808;52.478;13.378;2023-06-24T07:34:44;10.77;;;7.80;;
17380;SDS011;8808;52.478;13.378;2023-06-24T07:37:11;7.83;;;5.17;;
17380;SDS011;8808;52.478;13.378;2023-06-24T07:39:38;7.23;;;4.63;;
17380;SDS011;8808;52.478;13.378;2023-06-24T07:42:05;9.15;;;5.82;;
17380;SDS011;8808;52.478;13.378;2023-06-24T07:44:33;6.63;;;4.63;;
17380;SDS011;8808;52.478;13.378;2023-06-24T07:47:03;6.00;;;3.65;;
17380;SDS011;8808;52.478;13.378;2023-06-24T07:49:31;6.25;;;4.32;;
17380;SDS011;8808;52.478;13.378;2023-06-24T07:51:58;5.15;;;4.13;;
17380;SDS011;8808;52.478;13.378;2023-06-24T07:54:25;5.28;;;3.72;;
17380;SDS011;8808;52.478;13.378;2023-06-24T07:56:52;3.15;;;2.70;;
17380;SDS011;8808;52.478;13.378;2023-06-24T07:59:19;5.20;;;2.58;;
17380;SDS011;8808;52.478;13.378;2023-06-24T08:01:46;2.30;;;2.10;;
17380;SDS011;8808;52.478;13.378;2023-06-24T08:04:14;2.50;;;2.30;;
17380;SDS011;8808;52.478;13.378;2023-06-24T08:06:41;3.22;;;2.60;;
17380;SDS011;8808;52.478;13.378;2023-06-24T08:09:08;3.00;;;2.70;;
17380;SDS011;8808;52.478;13.378;2023-06-24T08:11:35;2.28;;;1.58;;
17380;SDS011;8808;52.478;13.378;2023-06-24T08:14:02;1.70;;;1.60;;
17380;SDS011;8808;52.478;13.378;2023-06-24T08:16:29;2.35;;;1.75;;
17380;SDS011;8808;52.478;13.378;2023-06-24T08:18:56;0.20;;;0.20;;
17380;SDS011;8808;52.478;13.378;2023-06-24T08:21:25;0.00;;;0.00;;
17380;SDS011;8808;52.478;13.378;2023-06-24T08:23:51;0.30;;;0.30;;
17380;SDS011;8808;52.478;13.378;2023-06-24T08:26:19;1.00;;;1.00;;
17380;SDS011;8808;52.478;13.378;2023-06-24T08:28:46;1.00;;;1.00;;
17380;SDS011;8808;52.478;13.378;2023-06-24T08:31:14;1.08;;;1.00;;
17380;SDS011;8808;52.478;13.378;2023-06-24T08:33:42;1.15;;;1.05;;
17380;SDS011;8808;52.478;13.378;2023-06-24T08:36:10;1.35;;;1.25;;
17380;SDS011;8808;52.478;13.378;2023-06-24T08:38:38;1.90;;;1.70;;
17380;SDS011;8808;52.478;13.378;2023-06-24T08:41:05;2.35;;;1.65;;
17380;SDS011;8808;52.478;13.378;2023-06-24T08:43:33;1.27;;;1.17;;
17380;SDS011;8808;52.478;13.378;2023-06-24T08:46:00;2.90;;;1.50;;
17380;SDS011;8808;52.478;13.378;2023-06-24T08:48:27;3.13;;;1.70;;
17380;SDS011;8808;52.478;13.378;2023-06-24T08:50:56;2.17;;;1.48;;
17380;SDS011;8808;52.478;13.378;2023-06-24T08:53:27;2.17;;;1.70;;
17380;SDS011;8808;52.478;13.378;2023-06-24T08:55:57;4.63;;;2.33;;
17380;SDS011;8808;52.478;13.378;2023-06-24T08:58:24;0.10;;;0.10;;
17380;SDS011;8808;52.478;13.378;2023-06-24T09:00:52;0.25;;;0.20;;
17380;SDS011;8808;52.478;13.378;2023-06-24T09:03:19;0.22;;;0.22;;
17380;SDS011;8808;52.478;13.378;2023-06-24T09:05:46;0.35;;;0.35;;
17380;SDS011;8808;52.478;13.378;2023-06-24T09:08:13;0.40;;;0.40;;
17380;SDS011;8808;52.478;13.378;2023-06-24T09:10:40;0.47;;;0.47;;
17380;SDS011;8808;52.478;13.378;2023-06-24T09:13:09;0.10;;;0.10;;
17380;SDS011;8808;52.478;13.378;2023-06-24T09:15:36;0.20;;;0.20;;
17380;SDS011;8808;52.478;13.378;2023-06-24T09:18:04;0.20;;;0.20;;
17380;SDS011;8808;52.478;13.378;2023-06-24T09:20:32;0.22;;;0.22;;
17380;SDS011;8808;52.478;13.378;2023-06-24T09:23:04;0.28;;;0.28;;
17380;SDS011;8808;52.478;13.378;2023-06-24T09:25:31;0.55;;;0.55;;
17380;SDS011;8808;52.478;13.378;2023-06-24T09:27:58;1.55;;;1.40;;
17380;SDS011;8808;52.478;13.378;2023-06-24T09:30:28;0.30;;;0.30;;
17380;SDS011;8808;52.478;13.378;2023-06-24T09:32:55;0.30;;;0.30;;
17380;SDS011;8808;52.478;13.378;2023-06-24T09:35:22;0.30;;;0.30;;
17380;SDS011;8808;52.478;13.378;2023-06-24T09:37:51;0.30;;;0.30;;
17380;SDS011;8808;52.478;13.378;2023-06-24T09:40:18;0.20;;;0.20;;
17380;SDS011;8808;52.478;13.378;2023-06-24T09:42:49;1.15;;;0.20;;
17380;SDS011;8808;52.478;13.378;2023-06-24T09:48:00;0.28;;;0.10;;
17380;SDS011;8808;52.478;13.378;2023-06-24T09:50:28;0.10;;;0.10;;
17380;SDS011;8808;52.478;13.378;2023-06-24T09:52:56;0.00;;;0.00;;
17380;SDS011;8808;52.478;13.378;2023-06-24T09:55:24;0.00;;;0.00;;
17380;SDS011;8808;52.478;13.378;2023-06-24T09:57:52;0.00;;;0.00;;
17380;SDS011;8808;52.478;13.378;2023-06-24T10:00:20;0.00;;;0.00;;
17380;SDS011;8808;52.478;13.378;2023-06-24T10:02:49;0.00;;;0.00;;
17380;SDS011;8808;52.478;13.378;2023-06-24T10:05:19;0.08;;;0.08;;
17380;SDS011;8808;52.478;13.378;2023-06-24T10:07:46;78.57;;;19.83;;
17380;SDS011;8808;52.478;13.378;2023-06-24T10:10:14;0.00;;;0.00;;
17380;SDS011;8808;52.478;13.378;2023-06-24T10:12:41;0.00;;;0.00;;
17380;SDS011;8808;52.478;13.378;2023-06-24T10:15:09;0.00;;;0.00;;
17380;SDS011;8808;52.478;13.378;2023-06-24T10:17:37;0.00;;;0.00;;
17380;SDS011;8808;52.478;13.378;2023-06-24T10:20:06;0.00;;;0.00;;
17380;SDS011;8808;52.478;13.378;2023-06-24T10:22:33;0.00;;;0.00;;
17380;SDS011;8808;52.478;13.378;2023-06-24T10:25:01;0.00;;;0.00;;
17380;SDS011;8808;52.478;13.378;2023-06-24T10:27:31;0.15;;;0.15;;
17380;SDS011;8808;52.478;13.378;2023-06-24T10:30:07;0.20;;;0.20;;
17380;SDS011;8808;52.478;13.378;2023-06-24T10:32:39;0.30;;;0.30;;
17380;SDS011;8808;52.478;13.378;2023-06-24T10:35:20;0.30;;;0.30;;
17380;SDS011;8808;52.478;13.378;2023-06-24T10:37:55;0.40;;;0.40;;
17380;SDS011;8808;52.478;13.378;2023-06-24T10:40:35;0.20;;;0.20;;
17380;SDS011;8808;52.478;13.378;2023-06-24T10:43:22;0.00;;;0.00;;
17380;SDS011;8808;52.478;13.378;2023-06-24T10:45:52;0.08;;;0.08;;
17380;SDS011;8808;52.478;13.378;2023-06-24T10:48:20;0.10;;;0.10;;
17380;SDS011;8808;52.478;13.378;2023-06-24T10:50:48;0.20;;;0.20;;
17380;SDS011;8808;52.478;13.378;2023-06-24T10:53:15;0.20;;;0.20;;
17380;SDS011;8808;52.478;13.378;2023-06-24T10:55:44;0.10;;;0.10;;
17380;SDS011;8808;52.478;13.378;2023-06-24T10:58:12;0.25;;;0.25;;
17380;SDS011;8808;52.478;13.378;2023-06-24T11:00:40;0.03;;;0.03;;
17380;SDS011;8808;52.478;13.378;2023-06-24T11:03:11;2.40;;;0.90;;
17380;SDS011;8808;52.478;13.378;2023-06-24T11:05:39;0.98;;;0.70;;
17380;SDS011;8808;52.478;13.378;2023-06-24T11:08:09;1.10;;;1.00;;
17380;SDS011;8808;52.478;13.378;2023-06-24T11:10:42;1.13;;;1.02;;
17380;SDS011;8808;52.478;13.378;2023-06-24T11:13:10;1.13;;;1.02;;
17380;SDS011;8808;52.478;13.378;2023-06-24T11:15:38;3.28;;;1.90;;
17380;SDS011;8808;52.478;13.378;2023-06-24T11:18:07;3.08;;;1.52;;
17380;SDS011;8808;52.478;13.378;2023-06-24T11:20:35;4.55;;;2.10;;
17380;SDS011;8808;52.478;13.378;2023-06-24T11:23:06;3.42;;;1.77;;
17380;SDS011;8808;52.478;13.378;2023-06-24T11:25:39;2.35;;;2.15;;
17380;SDS011;8808;52.478;13.378;2023-06-24T11:28:14;3.28;;;2.53;;
17380;SDS011;8808;52.478;13.378;2023-06-24T11:30:43;3.13;;;2.13;;
17380;SDS011;8808;52.478;13.378;2023-06-24T11:33:10;2.28;;;1.90;;
17380;SDS011;8808;52.478;13.378;2023-06-24T11:35:37;2.95;;;1.85;;
17380;SDS011;8808;52.478;13.378;2023-06-24T11:38:04;2.42;;;2.20;;
17380;SDS011;8808;52.478;13.378;2023-06-24T11:40:31;1.67;;;1.58;;
17380;SDS011;8808;52.478;13.378;2023-06-24T11:43:01;0.30;;;0.30;;
17380;SDS011;8808;52.478;13.378;2023-06-24T11:45:28;0.10;;;0.10;;
17380;SDS011;8808;52.478;13.378;2023-06-24T11:48:01;0.20;;;0.20;;
17380;SDS011;8808;52.478;13.378;2023-06-24T11:50:32;0.30;;;0.30;;
17380;SDS011;8808;52.478;13.378;2023-06-24T11:52:59;7.07;;;3.03;;
17380;SDS011;8808;52.478;13.378;2023-06-24T11:55:26;3.97;;;2.70;;
17380;SDS011;8808;52.478;13.378;2023-06-24T11:57:54;7.22;;;2.90;;
17380;SDS011;8808;52.478;13.378;2023-06-24T12:00:24;6.75;;;2.78;;
17380;SDS011;8808;52.478;13.378;2023-06-24T12:02:53;3.40;;;2.67;;
17380;SDS011;8808;52.478;13.378;2023-06-24T12:05:22;3.55;;;2.70;;
17380;SDS011;8808;52.478;13.378;2023-06-24T12:07:53;4.78;;;3.28;;
17380;SDS011;8808;52.478;13.378;2023-06-24T12:10:21;4.00;;;2.90;;
17380;SDS011;8808;52.478;13.378;2023-06-24T12:12:49;6.53;;;3.13;;
17380;SDS011;8808;52.478;13.378;2023-06-24T12:15:16;4.47;;;3.33;;
17380;SDS011;8808;52.478;13.378;2023-06-24T12:17:45;9.18;;;3.00;;
17380;SDS011;8808;52.478;13.378;2023-06-24T12:20:13;3.10;;;2.78;;
17380;SDS011;8808;52.478;13.378;2023-06-24T12:22:40;0.00;;;0.00;;
17380;SDS011;8808;52.478;13.378;2023-06-24T12:25:08;0.60;;;0.60;;
17380;SDS011;8808;52.478;13.378;2023-06-24T12:27:35;0.15;;;0.15;;
17380;SDS011;8808;52.478;13.378;2023-06-24T12:30:05;0.35;;;0.35;;
17380;SDS011;8808;52.478;13.378;2023-06-24T12:32:33;1.05;;;0.60;;
17380;SDS011;8808;52.478;13.378;2023-06-24T12:35:01;0.80;;;0.80;;
17380;SDS011;8808;52.478;13.378;2023-06-24T12:37:29;0.80;;;0.80;;
17380;SDS011;8808;52.478;13.378;2023-06-24T12:39:58;1.05;;;1.05;;
17380;SDS011;8808;52.478;13.378;2023-06-24T12:42:26;0.00;;;0.00;;
17380;SDS011;8808;52.478;13.378;2023-06-24T12:44:54;0.00;;;0.00;;
17380;SDS011;8808;52.478;13.378;2023-06-24T12:47:21;0.10;;;0.10;;
17380;SDS011;8808;52.478;13.378;2023-06-24T12:49:48;151.52;;;65.50;;
17380;SDS011;8808;52.478;13.378;2023-06-24T12:52:17;1.02;;;1.02;;
17380;SDS011;8808;52.478;13.378;2023-06-24T12:54:44;0.30;;;0.30;;
17380;SDS011;8808;52.478;13.378;2023-06-24T12:57:11;0.20;;;0.20;;
17380;SDS011;8808;52.478;13.378;2023-06-24T12:59:38;0.22;;;0.22;;
17380;SDS011;8808;52.478;13.378;2023-06-24T13:02:05;6.25;;;5.88;;
17380;SDS011;8808;52.478;13.378;2023-06-24T13:04:32;0.30;;;0.30;;
17380;SDS011;8808;52.478;13.378;2023-06-24T13:06:59;5.47;;;5.10;;
17380;SDS011;8808;52.478;13.378;2023-06-24T13:09:27;0.68;;;0.68;;
17380;SDS011;8808;52.478;13.378;2023-06-24T13:11:54;1.60;;;1.40;;
17380;SDS011;8808;52.478;13.378;2023-06-24T13:14:21;1.13;;;0.90;;
17380;SDS011;8808;52.478;13.378;2023-06-24T13:16:50;0.60;;;0.60;;
17380;SDS011;8808;52.478;13.378;2023-06-24T13:19:17;0.40;;;0.40;;
17380;SDS011;8808;52.478;13.378;2023-06-24T13:21:44;0.13;;;0.13;;
17380;SDS011;8808;52.478;13.378;2023-06-24T13:24:11;0.20;;;0.20;;
17380;SDS011;8808;52.478;13.378;2023-06-24T13:26:40;0.10;;;0.10;;
17380;SDS011;8808;52.478;13.378;2023-06-24T13:29:07;0.38;;;0.20;;
17380;SDS011;8808;52.478;13.378;2023-06-24T13:31:34;0.00;;;0.00;;
17380;SDS011;8808;52.478;13.378;2023-06-24T13:34:01;0.00;;;0.00;;
17380;SDS011;8808;52.478;13.378;2023-06-24T13:36:29;0.00;;;0.00;;
17380;SDS011;8808;52.478;13.378;2023-06-24T13:39:00;0.00;;;0.00;;
17380;SDS011;8808;52.478;13.378;2023-06-24T13:41:28;0.88;;;0.60;;
17380;SDS011;8808;52.478;13.378;2023-06-24T13:43:58;0.45;;;0.45;;
17380;SDS011;8808;52.478;13.378;2023-06-24T13:46:26;0.60;;;0.60;;
17380;SDS011;8808;52.478;13.378;2023-06-24T13:48:53;1.08;;;1.08;;
17380;SDS011;8808;52.478;13.378;2023-06-24T13:51:20;2.22;;;2.05;;
17380;SDS011;8808;52.478;13.378;2023-06-24T13:53:48;1.88;;;1.63;;
17380;SDS011;8808;52.478;13.378;2023-06-24T13:56:16;2.25;;;1.98;;
17380;SDS011;8808;52.478;13.378;2023-06-24T13:58:43;1.90;;;1.42;;
17380;SDS011;8808;52.478;13.378;2023-06-24T14:01:12;2.28;;;1.63;;
17380;SDS011;8808;52.478;13.378;2023-06-24T14:03:38;3.38;;;3.08;;
17380;SDS011;8808;52.478;13.378;2023-06-24T14:06:06;3.15;;;2.30;;
17380;SDS011;8808;52.478;13.378;2023-06-24T14:08:33;2.03;;;1.63;;
17380;SDS011;8808;52.478;13.378;2023-06-24T14:11:01;2.03;;;1.80;;
17380;SDS011;8808;52.478;13.378;2023-06-24T14:13:28;2.00;;;1.80;;
17380;SDS011;8808;52.478;13.378;2023-06-24T14:15:56;2.67;;;2.47;;
17380;SDS011;8808;52.478;13.378;2023-06-24T14:18:25;1.85;;;1.60;;
17380;SDS011;8808;52.478;13.378;2023-06-24T14:20:51;2.55;;;1.70;;
17380;SDS011;8808;52.478;13.378;2023-06-24T14:23:19;4.18;;;2.40;;
17380;SDS011;8808;52.478;13.378;2023-06-24T14:25:46;2.20;;;1.95;;
17380;SDS011;8808;52.478;13.378;2023-06-24T14:28:13;2.10;;;1.90;;
17380;SDS011;8808;52.478;13.378;2023-06-24T14:30:40;3.10;;;2.38;;
17380;SDS011;8808;52.478;13.378;2023-06-24T14:33:07;2.63;;;1.90;;
17380;SDS011;8808;52.478;13.378;2023-06-24T14:35:36;3.20;;;2.25;;
17380;SDS011;8808;52.478;13.378;2023-06-24T14:38:03;3.80;;;2.15;;
17380;SDS011;8808;52.478;13.378;2023-06-24T14:40:30;4.45;;;2.50;;
17380;SDS011;8808;52.478;13.378;2023-06-24T14:42:57;4.40;;;2.10;;
17380;SDS011;8808;52.478;13.378;2023-06-24T14:45:24;2.72;;;2.20;;
17380;SDS011;8808;52.478;13.378;2023-06-24T14:47:52;4.20;;;1.98;;
17380;SDS011;8808;52.478;13.378;2023-06-24T14:50:19;2.67;;;2.15;;